createdAt,value
2019-05-28T00:01:09.944Z,15.60
2019-05-28T00:03:38.368Z,13.67
2019-05-28T00:06:06.819Z,14.67
2019-05-28T00:08:35.254Z,15.33
2019-05-28T00:11:03.678Z,13.10
2019-05-28T00:13:32.114Z,14.17
2019-05-28T00:16:00.559Z,15.53
2019-05-28T00:18:28.982Z,14.13
2019-05-28T00:20:57.406Z,11.87
2019-05-28T00:23:25.839Z,14.03
2019-05-28T00:25:54.326Z,13.73
2019-05-28T00:28:22.773Z,13.93
2019-05-28T00:30:51.201Z,16.63
2019-05-28T00:33:19.646Z,16.97
2019-05-28T00:35:48.075Z,21.03
2019-05-28T00:38:16.533Z,19.37
2019-05-28T00:40:45.039Z,20.97
2019-05-28T00:43:13.472Z,19.77
2019-05-28T00:45:41.912Z,19.73
2019-05-28T00:48:10.415Z,20.80
2019-05-28T00:50:39.012Z,18.57
2019-05-28T00:53:07.512Z,17.20
2019-05-28T00:55:36.959Z,16.37
2019-05-28T00:58:05.666Z,15.83
2019-05-28T01:00:51.167Z,15.57
2019-05-28T01:03:19.607Z,15.00
2019-05-28T01:05:48.038Z,18.53
2019-05-28T01:08:16.475Z,16.27
2019-05-28T01:10:45.577Z,15.43
2019-05-28T01:13:14.008Z,16.77
2019-05-28T01:15:42.470Z,14.63
2019-05-28T01:18:11.079Z,14.50
2019-05-28T01:20:39.511Z,15.50
2019-05-28T01:23:07.962Z,16.77
2019-05-28T01:25:36.397Z,16.00
2019-05-28T01:28:04.981Z,19.07
2019-05-28T01:30:33.441Z,16.73
2019-05-28T01:33:01.875Z,18.80
2019-05-28T01:35:30.308Z,15.73
2019-05-28T01:37:58.797Z,14.53
2019-05-28T01:40:27.253Z,16.03
2019-05-28T01:42:55.674Z,18.90
2019-05-28T01:45:24.103Z,14.10
2019-05-28T01:47:52.564Z,15.50
2019-05-28T01:50:21.182Z,15.77
2019-05-28T01:52:49.609Z,16.23
2019-05-28T01:55:18.175Z,18.13
2019-05-28T01:57:46.609Z,19.43
2019-05-28T02:00:15.589Z,17.00
2019-05-28T02:02:44.115Z,15.70
2019-05-28T02:05:12.978Z,17.03
2019-05-28T02:07:41.408Z,18.97
2019-05-28T02:10:11.721Z,20.63
2019-05-28T02:12:40.152Z,21.17
2019-05-28T02:15:10.942Z,20.30
2019-05-28T02:17:39.435Z,23.00
2019-05-28T02:20:09.608Z,24.37
2019-05-28T02:22:38.053Z,23.33
2019-05-28T02:25:11.357Z,23.13
2019-05-28T02:27:39.771Z,23.73
2019-05-28T02:30:14.143Z,25.95
2019-05-28T02:32:42.556Z,22.17
2019-05-28T02:35:11.526Z,18.97
2019-05-28T02:37:39.957Z,21.80
2019-05-28T02:40:08.936Z,20.50
2019-05-28T02:42:37.439Z,20.70
2019-05-28T02:45:12.762Z,20.13
2019-05-28T02:47:41.228Z,19.07
2019-05-28T02:50:11.006Z,19.20
2019-05-28T02:52:40.075Z,19.37
2019-05-28T02:55:09.344Z,19.60
2019-05-28T02:57:40.827Z,18.53
2019-05-28T03:00:14.934Z,18.80
2019-05-28T03:02:46.410Z,18.63
2019-05-28T03:05:15.080Z,21.90
2019-05-28T03:07:46.921Z,19.47
2019-05-28T03:10:17.144Z,18.17
2019-05-28T03:12:45.603Z,16.60
2019-05-28T03:15:15.363Z,17.27
2019-05-28T03:17:44.760Z,16.17
2019-05-28T03:20:13.632Z,16.97
2019-05-28T03:22:44.499Z,16.70
2019-05-28T03:25:13.066Z,18.15
2019-05-28T03:27:41.586Z,18.13
2019-05-28T03:30:11.254Z,19.53
2019-05-28T03:32:39.681Z,17.00
2019-05-28T03:35:08.356Z,16.17
2019-05-28T03:37:37.531Z,16.90
2019-05-28T03:40:08.795Z,16.80
2019-05-28T03:42:37.302Z,17.07
2019-05-28T03:45:06.881Z,20.30
2019-05-28T03:47:35.323Z,17.40
2019-05-28T03:50:07.430Z,17.93
2019-05-28T03:52:35.864Z,17.87
2019-05-28T03:55:08.315Z,20.20
2019-05-28T03:57:36.819Z,21.43
2019-05-28T04:00:08.075Z,22.67
2019-05-28T04:02:36.523Z,20.77
2019-05-28T04:05:05.688Z,20.83
2019-05-28T04:07:34.198Z,20.43
2019-05-28T04:10:02.644Z,20.00
2019-05-28T04:12:31.077Z,24.50
2019-05-28T04:14:59.500Z,22.10
2019-05-28T04:17:27.947Z,20.53
2019-05-28T04:19:56.377Z,19.83
2019-05-28T04:22:24.808Z,19.80
2019-05-28T04:24:53.235Z,20.30
2019-05-28T04:27:21.671Z,27.65
2019-05-28T04:29:50.114Z,25.23
2019-05-28T04:32:18.545Z,23.80
2019-05-28T04:34:46.972Z,23.30
2019-05-28T04:37:15.413Z,26.10
2019-05-28T04:39:43.839Z,26.20
2019-05-28T04:42:12.271Z,26.87
2019-05-28T04:44:40.699Z,27.53
2019-05-28T04:47:09.206Z,27.43
2019-05-28T04:49:37.744Z,28.87
2019-05-28T04:52:06.194Z,27.77
2019-05-28T04:54:34.609Z,28.75
2019-05-28T04:57:03.070Z,31.27
2019-05-28T04:59:31.496Z,31.60
2019-05-28T05:01:59.929Z,33.20
2019-05-28T05:04:28.356Z,39.13
2019-05-28T05:06:56.834Z,39.17
2019-05-28T05:09:25.236Z,45.33
2019-05-28T05:11:53.664Z,41.20
2019-05-28T05:14:22.097Z,39.17
2019-05-28T05:16:50.528Z,42.20
2019-05-28T05:19:18.970Z,40.67
2019-05-28T05:21:47.401Z,40.40
2019-05-28T05:24:15.832Z,38.00
2019-05-28T05:26:44.271Z,42.57
2019-05-28T05:29:12.721Z,37.87
2019-05-28T05:31:41.172Z,39.83
2019-05-28T05:34:09.600Z,35.13
2019-05-28T05:36:38.035Z,35.37
2019-05-28T05:39:08.524Z,36.53
2019-05-28T05:41:36.949Z,27.37
2019-05-28T05:44:05.455Z,31.20
2019-05-28T05:46:33.886Z,27.90
2019-05-28T05:49:02.316Z,19.47
2019-05-28T05:51:30.750Z,19.80
2019-05-28T05:53:59.184Z,20.07
2019-05-28T05:56:27.678Z,19.87
2019-05-28T05:58:56.079Z,18.97
2019-05-28T06:01:24.623Z,19.27
2019-05-28T06:03:53.048Z,21.93
2019-05-28T06:06:21.493Z,24.57
2019-05-28T06:08:49.982Z,25.35
2019-05-28T06:11:18.441Z,24.23
2019-05-28T06:13:46.914Z,24.30
2019-05-28T06:16:15.350Z,25.40
2019-05-28T06:18:43.803Z,23.43
2019-05-28T06:21:17.455Z,25.63
2019-05-28T06:23:42.436Z,27.80
2019-05-28T06:26:11.066Z,26.07
2019-05-28T06:28:39.491Z,29.10
2019-05-28T06:31:07.990Z,29.17
2019-05-28T06:33:36.427Z,28.50
2019-05-28T06:36:04.986Z,28.67
2019-05-28T06:38:33.460Z,28.20
2019-05-28T06:41:01.897Z,28.03
2019-05-28T06:43:30.400Z,33.43
2019-05-28T06:45:58.892Z,30.60
2019-05-28T06:48:27.346Z,29.63
2019-05-28T06:50:55.747Z,34.90
2019-05-28T06:53:24.186Z,30.50
2019-05-28T06:55:52.622Z,32.37
2019-05-28T06:58:37.999Z,31.40
2019-05-28T07:00:51.214Z,30.00
2019-05-28T07:03:19.657Z,28.07
2019-05-28T07:06:05.129Z,25.07
2019-05-28T07:08:18.255Z,27.40
2019-05-28T07:10:57.219Z,24.47
2019-05-28T07:13:16.861Z,20.40
2019-05-28T07:15:45.563Z,18.63
2019-05-28T07:18:14.007Z,16.77
2019-05-28T07:20:42.439Z,14.73
2019-05-28T07:23:10.876Z,16.50
2019-05-28T07:25:39.434Z,11.17
2019-05-28T07:28:11.489Z,9.83
2019-05-28T07:30:38.000Z,7.73
2019-05-28T07:33:06.587Z,7.90
2019-05-28T07:35:45.170Z,9.63
2019-05-28T07:38:05.222Z,8.37
2019-05-28T07:40:33.974Z,9.60
2019-05-28T07:43:03.509Z,9.70
2019-05-28T07:45:31.927Z,7.23
2019-05-28T07:48:00.339Z,8.27
2019-05-28T07:50:28.773Z,9.40
2019-05-28T07:52:57.230Z,8.47
2019-05-28T07:55:25.713Z,7.07
2019-05-28T07:57:54.147Z,6.17
2019-05-28T08:00:37.807Z,6.20
2019-05-28T08:03:06.567Z,6.87
2019-05-28T08:05:35.678Z,6.42
2019-05-28T08:08:07.349Z,6.37
2019-05-28T08:10:36.143Z,6.10
2019-05-28T08:13:08.407Z,7.20
2019-05-28T08:15:36.890Z,5.30
2019-05-28T08:18:05.950Z,5.30
2019-05-28T08:20:34.815Z,5.70
2019-05-28T08:23:03.311Z,6.23
2019-05-28T08:25:46.095Z,7.17
2019-05-28T08:28:18.470Z,5.93
2019-05-28T08:30:32.263Z,6.47
2019-05-28T08:33:00.696Z,5.73
2019-05-28T08:35:29.116Z,8.83
2019-05-28T08:37:57.541Z,7.33
2019-05-28T08:40:25.978Z,6.30
2019-05-28T08:42:55.393Z,5.87
2019-05-28T08:45:23.888Z,6.10
2019-05-28T08:47:52.415Z,5.70
2019-05-28T08:50:33.750Z,6.17
2019-05-28T08:52:51.089Z,7.10
2019-05-28T08:55:19.576Z,5.83
2019-05-28T08:57:48.008Z,5.43
2019-05-28T09:00:22.361Z,5.57
2019-05-28T09:02:50.754Z,7.03
2019-05-28T09:05:26.419Z,5.37
2019-05-28T09:07:49.337Z,5.77
2019-05-28T09:10:17.771Z,5.97
2019-05-28T09:12:46.201Z,6.87
2019-05-28T09:15:14.710Z,8.88
2019-05-28T09:17:43.137Z,6.60
2019-05-28T09:20:11.723Z,5.60
2019-05-28T09:22:40.153Z,8.27
2019-05-28T09:25:08.727Z,5.87
2019-05-28T09:27:37.138Z,6.20
2019-05-28T09:30:09.352Z,7.07
2019-05-28T09:32:37.961Z,5.90
2019-05-28T09:35:08.164Z,6.00
2019-05-28T09:37:36.576Z,6.67
2019-05-28T09:40:08.727Z,6.10
2019-05-28T09:42:37.154Z,6.63
2019-05-28T09:45:21.965Z,6.30
2019-05-28T09:47:37.441Z,7.83
2019-05-28T09:50:27.051Z,7.63
2019-05-28T09:52:52.971Z,6.77
2019-05-28T09:55:09.339Z,8.05
2019-05-28T09:57:47.005Z,6.93
2019-05-28T10:00:10.586Z,8.50
2019-05-28T10:02:39.131Z,9.17
2019-05-28T10:05:08.113Z,7.03
2019-05-28T10:07:36.526Z,7.10
2019-05-28T10:10:08.218Z,7.53
2019-05-28T10:12:36.631Z,9.07
2019-05-28T10:15:07.168Z,7.60
2019-05-28T10:17:35.756Z,8.93
2019-05-28T10:20:06.998Z,9.15
2019-05-28T10:22:35.437Z,10.37
2019-05-28T10:25:06.755Z,10.03
2019-05-28T10:27:35.178Z,10.47
2019-05-28T10:30:05.516Z,12.27
2019-05-28T10:32:33.924Z,15.93
2019-05-28T10:35:04.218Z,17.17
2019-05-28T10:37:32.590Z,14.60
2019-05-28T10:40:01.008Z,15.83
2019-05-28T10:42:29.442Z,16.40
2019-05-28T10:44:57.881Z,16.70
2019-05-28T10:47:26.312Z,15.77
2019-05-28T10:49:54.744Z,15.57
2019-05-28T10:52:23.212Z,16.60
2019-05-28T10:54:51.632Z,17.00
2019-05-28T10:57:20.088Z,16.13
2019-05-28T10:59:48.524Z,15.77
2019-05-28T11:02:16.961Z,17.23
2019-05-28T11:04:45.423Z,15.63
2019-05-28T11:07:13.846Z,19.97
2019-05-28T11:09:42.285Z,19.43
2019-05-28T11:12:10.713Z,21.30
2019-05-28T11:14:39.138Z,18.43
2019-05-28T11:17:07.575Z,21.13
2019-05-28T11:19:36.090Z,19.47
2019-05-28T11:22:04.963Z,20.07
2019-05-28T11:24:33.397Z,23.23
2019-05-28T11:27:01.835Z,20.43
2019-05-28T11:29:30.273Z,16.27
2019-05-28T11:31:58.723Z,18.30
2019-05-28T11:34:27.193Z,18.43
2019-05-28T11:37:08.781Z,20.27
2019-05-28T11:39:25.751Z,18.63
2019-05-28T11:41:54.178Z,21.20
2019-05-28T11:44:22.626Z,18.93
2019-05-28T11:46:51.187Z,18.90
2019-05-28T11:49:19.725Z,22.37
2019-05-28T11:51:48.155Z,20.63
2019-05-28T11:54:16.586Z,22.60
2019-05-28T11:56:45.024Z,22.27
2019-05-28T11:59:13.457Z,20.50
2019-05-28T12:01:46.950Z,18.57
2019-05-28T12:04:18.195Z,19.73
2019-05-28T12:06:49.327Z,17.03
2019-05-28T12:09:20.990Z,15.80
2019-05-28T12:11:52.542Z,17.47
2019-05-28T12:14:25.870Z,16.47
2019-05-28T12:17:00.772Z,15.27
2019-05-28T12:19:35.194Z,13.40
2019-05-28T12:22:05.117Z,14.57
2019-05-28T12:24:33.571Z,11.83
2019-05-28T12:27:04.453Z,11.30
2019-05-28T12:29:51.054Z,12.03
2019-05-28T12:32:09.684Z,9.53
2019-05-28T12:34:42.144Z,10.23
2019-05-28T12:37:15.373Z,6.53
2019-05-28T12:39:47.863Z,4.00
2019-05-28T12:42:19.305Z,4.70
2019-05-28T12:45:08.258Z,4.17
2019-05-28T12:47:22.421Z,3.53
2019-05-28T12:49:50.947Z,5.23
2019-05-28T12:52:19.372Z,3.77
2019-05-28T12:54:47.806Z,5.27
2019-05-28T12:57:16.239Z,4.33
2019-05-28T12:59:44.664Z,2.67
2019-05-28T13:02:13.100Z,2.53
2019-05-28T13:04:41.786Z,3.37
2019-05-28T13:07:10.311Z,2.83
2019-05-28T13:09:38.732Z,3.30
2019-05-28T13:12:07.187Z,3.07
2019-05-28T13:14:35.666Z,6.17
2019-05-28T13:17:04.103Z,6.00
2019-05-28T13:19:32.548Z,5.23
2019-05-28T13:22:01.035Z,6.03
2019-05-28T13:24:29.445Z,4.30
2019-05-28T13:26:57.871Z,4.23
2019-05-28T13:29:27.247Z,5.53
2019-05-28T13:31:55.675Z,4.23
2019-05-28T13:34:24.139Z,5.67
2019-05-28T13:36:52.557Z,4.27
2019-05-28T13:39:21.021Z,5.97
2019-05-28T13:41:49.417Z,3.77
2019-05-28T13:44:17.847Z,4.57
2019-05-28T13:46:46.278Z,6.53
2019-05-28T13:49:14.706Z,4.13
2019-05-28T13:51:43.203Z,3.50
2019-05-28T13:54:11.670Z,5.27
2019-05-28T13:56:40.105Z,4.17
2019-05-28T13:59:10.468Z,4.27
2019-05-28T14:01:38.915Z,4.63
2019-05-28T14:04:07.346Z,4.77
2019-05-28T14:06:35.837Z,4.63
2019-05-28T14:09:06.397Z,3.40
2019-05-28T14:11:34.834Z,3.67
2019-05-28T14:14:03.405Z,4.50
2019-05-28T14:16:31.839Z,5.37
2019-05-28T14:19:00.262Z,7.13
2019-05-28T14:21:28.758Z,4.30
2019-05-28T14:23:57.259Z,5.30
2019-05-28T14:26:25.683Z,3.93
2019-05-28T14:28:54.145Z,5.97
2019-05-28T14:31:22.576Z,4.70
2019-05-28T14:33:50.998Z,4.53
2019-05-28T14:36:19.421Z,5.77
2019-05-28T14:39:01.359Z,4.97
2019-05-28T14:41:18.004Z,6.57
2019-05-28T14:43:46.434Z,9.33
2019-05-28T14:46:14.860Z,10.97
2019-05-28T14:48:43.291Z,16.63
2019-05-28T14:51:11.726Z,16.57
2019-05-28T14:53:40.256Z,13.80
2019-05-28T14:56:08.741Z,14.43
2019-05-28T14:58:37.181Z,14.47
2019-05-28T15:01:05.612Z,18.77
2019-05-28T15:03:34.049Z,15.53
2019-05-28T15:06:02.487Z,18.20
2019-05-28T15:08:30.932Z,18.73
2019-05-28T15:10:59.374Z,17.07
2019-05-28T15:13:27.860Z,16.73
2019-05-28T15:15:56.343Z,18.30
2019-05-28T15:18:24.762Z,13.70
2019-05-28T15:20:53.203Z,15.03
2019-05-28T15:23:21.633Z,9.98
2019-05-28T15:25:50.058Z,10.93
2019-05-28T15:28:18.479Z,11.40
2019-05-28T15:30:46.906Z,11.17
2019-05-28T15:33:15.406Z,10.30
2019-05-28T15:35:43.979Z,11.83
2019-05-28T15:38:12.419Z,8.43
2019-05-28T15:40:40.846Z,8.13
2019-05-28T15:43:09.288Z,9.00
2019-05-28T15:45:37.749Z,7.57
2019-05-28T15:48:06.175Z,7.37
2019-05-28T15:50:34.705Z,7.93
2019-05-28T15:53:03.133Z,9.20
2019-05-28T15:55:31.558Z,7.80
2019-05-28T15:58:00.073Z,6.13
2019-05-28T16:00:28.509Z,4.97
2019-05-28T16:02:56.952Z,5.63
2019-05-28T16:05:25.412Z,5.63
2019-05-28T16:07:53.896Z,6.17
2019-05-28T16:10:22.386Z,8.53
2019-05-28T16:12:50.812Z,7.30
2019-05-28T16:15:19.579Z,6.03
2019-05-28T16:17:48.012Z,6.60
2019-05-28T16:20:16.941Z,5.23
2019-05-28T16:22:45.418Z,6.40
2019-05-28T16:25:14.346Z,4.67
2019-05-28T16:27:42.762Z,5.23
2019-05-28T16:30:11.878Z,4.37
2019-05-28T16:32:40.361Z,5.60
2019-05-28T16:35:09.421Z,4.40
2019-05-28T16:37:37.847Z,4.00
2019-05-28T16:40:14.802Z,5.67
2019-05-28T16:42:37.433Z,5.80
2019-05-28T16:45:07.298Z,3.90
2019-05-28T16:47:35.722Z,5.47
2019-05-28T16:50:05.520Z,5.50
2019-05-28T16:52:33.932Z,6.07
2019-05-28T16:55:02.349Z,5.77
2019-05-28T16:57:30.807Z,4.07
2019-05-28T16:59:59.224Z,4.20
2019-05-28T17:02:27.668Z,3.87
2019-05-28T17:04:56.097Z,5.70
2019-05-28T17:07:24.579Z,5.03
2019-05-28T17:09:55.535Z,6.40
2019-05-28T17:12:23.161Z,4.50
2019-05-28T17:14:51.584Z,4.67
2019-05-28T17:17:20.025Z,5.17
2019-05-28T17:19:49.443Z,5.90
2019-05-28T17:22:17.871Z,4.60
2019-05-28T17:24:46.850Z,6.33
2019-05-28T17:27:16.341Z,6.50
2019-05-28T17:29:44.768Z,4.33
2019-05-28T17:32:13.262Z,4.83
2019-05-28T17:34:41.757Z,4.73
2019-05-28T17:37:10.189Z,5.53
2019-05-28T17:39:38.623Z,4.73
2019-05-28T17:42:07.069Z,5.10
2019-05-28T17:44:35.479Z,3.73
2019-05-28T17:47:03.981Z,6.13
2019-05-28T17:49:32.402Z,5.00
2019-05-28T17:52:00.839Z,5.43
2019-05-28T17:54:29.257Z,6.23
2019-05-28T17:56:57.704Z,4.73
2019-05-28T17:59:26.126Z,4.50
2019-05-28T18:01:54.623Z,6.13
2019-05-28T18:04:24.035Z,5.33
2019-05-28T18:06:52.552Z,6.57
2019-05-28T18:09:20.999Z,4.57
2019-05-28T18:11:49.423Z,4.90
2019-05-28T18:14:17.873Z,4.53
2019-05-28T18:16:46.314Z,5.83
2019-05-28T18:19:14.911Z,4.17
2019-05-28T18:21:43.370Z,5.20
2019-05-28T18:24:11.765Z,6.42
2019-05-28T18:26:40.187Z,4.80
2019-05-28T18:29:08.664Z,6.07
2019-05-28T18:31:37.086Z,7.00
2019-05-28T18:34:05.586Z,4.40
2019-05-28T18:36:34.018Z,6.33
2019-05-28T18:39:02.532Z,6.03
2019-05-28T18:41:30.949Z,6.40
2019-05-28T18:44:01.379Z,5.10
2019-05-28T18:46:29.513Z,4.70
2019-05-28T18:48:57.936Z,4.93
2019-05-28T18:51:26.427Z,5.50
2019-05-28T18:53:54.895Z,5.43
2019-05-28T18:56:23.354Z,4.73
2019-05-28T18:58:52.621Z,5.10
2019-05-28T19:01:21.003Z,5.60
2019-05-28T19:03:49.421Z,6.00
2019-05-28T19:06:17.869Z,5.80
2019-05-28T19:08:46.320Z,5.63
2019-05-28T19:11:14.805Z,4.70
2019-05-28T19:13:43.241Z,6.33
2019-05-28T19:16:11.690Z,4.67
2019-05-28T19:18:40.160Z,6.13
2019-05-28T19:21:08.537Z,6.33
2019-05-28T19:23:36.976Z,6.63
2019-05-28T19:26:05.476Z,5.80
2019-05-28T19:28:33.960Z,7.67
2019-05-28T19:31:02.554Z,6.27
2019-05-28T19:33:31.059Z,7.20
2019-05-28T19:36:01.196Z,8.13
2019-05-28T19:38:44.492Z,7.37
2019-05-28T19:40:59.938Z,5.73
2019-05-28T19:43:28.410Z,7.87
2019-05-28T19:45:56.780Z,8.00
2019-05-28T19:48:25.552Z,6.57
2019-05-28T19:50:53.978Z,7.43
2019-05-28T19:53:22.352Z,7.70
2019-05-28T19:55:50.780Z,6.13
2019-05-28T19:58:19.127Z,5.77
2019-05-28T20:00:47.521Z,9.33
2019-05-28T20:03:15.982Z,6.57
2019-05-28T20:05:44.459Z,6.33
2019-05-28T20:08:12.963Z,6.67
2019-05-28T20:10:41.692Z,7.33
2019-05-28T20:13:10.087Z,6.13
2019-05-28T20:15:38.507Z,7.63
2019-05-28T20:18:07.771Z,8.53
2019-05-28T20:20:36.150Z,6.73
2019-05-28T20:23:04.695Z,7.03
2019-05-28T20:25:33.095Z,7.03
2019-05-28T20:28:01.486Z,10.30
2019-05-28T20:30:29.965Z,8.03
2019-05-28T20:32:59.140Z,7.30
2019-05-28T20:35:30.960Z,8.33
2019-05-28T20:37:57.820Z,7.40
2019-05-28T20:40:26.270Z,9.60
2019-05-28T20:42:54.735Z,8.47
2019-05-28T20:45:23.121Z,7.67
2019-05-28T20:47:51.507Z,9.90
2019-05-28T20:50:20.184Z,10.00
2019-05-28T20:52:48.567Z,8.20
2019-05-28T20:55:17.701Z,10.60
2019-05-28T20:57:47.061Z,8.77
2019-05-28T21:00:17.088Z,9.30
2019-05-28T21:02:45.472Z,8.27
2019-05-28T21:05:14.193Z,8.93
2019-05-28T21:07:42.575Z,8.00
2019-05-28T21:10:12.297Z,8.03
2019-05-28T21:12:44.531Z,8.67
2019-05-28T21:15:15.917Z,9.97
2019-05-28T21:17:42.832Z,8.37
2019-05-28T21:20:12.956Z,9.87
2019-05-28T21:22:41.355Z,10.47
2019-05-28T21:25:09.983Z,8.90
2019-05-28T21:27:38.432Z,8.67
2019-05-28T21:30:07.669Z,9.10
2019-05-28T21:32:36.132Z,9.37
2019-05-28T21:35:06.114Z,9.17
2019-05-28T21:37:34.537Z,10.47
2019-05-28T21:40:02.961Z,9.07
2019-05-28T21:42:31.352Z,10.47
2019-05-28T21:45:00.263Z,8.17
2019-05-28T21:47:28.605Z,7.30
2019-05-28T21:49:58.867Z,9.57
2019-05-28T21:52:27.163Z,7.80
2019-05-28T21:54:55.736Z,8.77
2019-05-28T21:57:24.133Z,9.47
2019-05-28T21:59:53.503Z,8.20
2019-05-28T22:02:22.107Z,9.67
2019-05-28T22:04:50.492Z,8.13
2019-05-28T22:07:18.912Z,8.60
2019-05-28T22:09:47.307Z,8.83
2019-05-28T22:12:15.695Z,10.30
2019-05-28T22:14:44.076Z,7.80
2019-05-28T22:17:13.327Z,10.93
2019-05-28T22:19:41.756Z,9.13
2019-05-28T22:22:10.156Z,9.13
2019-05-28T22:24:38.603Z,9.80
2019-05-28T22:27:07.032Z,9.40
2019-05-28T22:29:35.464Z,9.77
2019-05-28T22:32:04.911Z,10.10
2019-05-28T22:34:33.494Z,11.77
2019-05-28T22:37:02.434Z,8.17
2019-05-28T22:39:30.929Z,10.40
2019-05-28T22:41:59.674Z,8.73
2019-05-28T22:44:28.209Z,10.63
2019-05-28T22:46:57.066Z,10.90
2019-05-28T22:49:25.469Z,9.03
2019-05-28T22:51:53.863Z,8.60
2019-05-28T22:54:22.260Z,8.85
2019-05-28T22:56:50.725Z,10.37
2019-05-28T22:59:19.120Z,8.37
2019-05-28T23:01:47.516Z,10.77
2019-05-28T23:04:15.917Z,10.00
2019-05-28T23:06:44.317Z,9.57
2019-05-28T23:09:12.729Z,9.90
2019-05-28T23:11:41.187Z,9.40
2019-05-28T23:14:10.329Z,8.43
2019-05-28T23:16:38.848Z,10.13
2019-05-28T23:19:08.621Z,10.23
2019-05-28T23:21:37.201Z,13.60
2019-05-28T23:24:05.591Z,9.67
2019-05-28T23:26:34.084Z,10.20
2019-05-28T23:29:03.626Z,11.43
2019-05-28T23:31:32.057Z,8.47
2019-05-28T23:34:00.439Z,9.83
2019-05-28T23:36:28.831Z,8.77
2019-05-28T23:38:57.215Z,9.93
2019-05-28T23:41:25.661Z,8.90
2019-05-28T23:44:02.051Z,9.60
2019-05-28T23:46:24.232Z,9.63
2019-05-28T23:48:52.629Z,10.43
2019-05-28T23:51:21.083Z,9.40
2019-05-28T23:53:49.544Z,11.70
2019-05-28T23:56:18.054Z,10.10
2019-05-28T23:58:46.423Z,11.77
